createdAt,value
2023-02-06T00:01:27.451Z,42.38
2023-02-06T00:03:54.403Z,39.60
2023-02-06T00:06:21.519Z,40.78
2023-02-06T00:08:48.404Z,40.63
2023-02-06T00:11:18.185Z,40.55
2023-02-06T00:13:45.645Z,41.15
2023-02-06T00:16:34.740Z,41.58
2023-02-06T00:19:02.311Z,40.87
2023-02-06T00:21:30.336Z,41.70
2023-02-06T00:24:00.918Z,40.83
2023-02-06T00:26:27.961Z,41.50
2023-02-06T00:28:54.985Z,41.30
2023-02-06T00:31:29.463Z,43.05
2023-02-06T00:33:56.596Z,41.00
2023-02-06T00:36:23.736Z,40.33
2023-02-06T00:38:56.355Z,42.03
2023-02-06T00:41:23.231Z,39.63
2023-02-06T00:43:50.101Z,38.83
2023-02-06T00:46:17.058Z,37.88
2023-02-06T00:48:43.979Z,39.65
2023-02-06T00:51:10.913Z,38.88
2023-02-06T00:53:38.800Z,37.90
2023-02-06T00:56:08.381Z,38.13
2023-02-06T00:58:35.290Z,38.28
2023-02-06T01:01:02.184Z,38.58
2023-02-06T01:03:29.206Z,38.80
2023-02-06T01:05:58.364Z,37.90
2023-02-06T01:08:27.506Z,40.08
2023-02-06T01:10:54.495Z,39.60
2023-02-06T01:13:21.689Z,39.50
2023-02-06T01:15:50.999Z,41.50
2023-02-06T01:18:18.218Z,38.15
2023-02-06T01:20:45.098Z,38.85
2023-02-06T01:23:11.948Z,39.50
2023-02-06T01:25:38.822Z,38.90
2023-02-06T01:28:05.767Z,41.42
2023-02-06T01:30:33.026Z,39.58
2023-02-06T01:32:59.953Z,40.33
2023-02-06T01:35:29.651Z,40.42
2023-02-06T01:37:56.666Z,40.78
2023-02-06T01:40:23.699Z,39.42
2023-02-06T01:42:50.653Z,41.88
2023-02-06T01:45:34.027Z,45.13
2023-02-06T01:48:06.357Z,42.55
2023-02-06T01:50:37.393Z,44.03
2023-02-06T01:53:05.827Z,43.15
2023-02-06T01:55:34.710Z,42.80
2023-02-06T01:58:04.900Z,43.92
2023-02-06T02:00:34.032Z,43.75
2023-02-06T02:03:01.703Z,43.72
2023-02-06T02:05:28.682Z,45.40
2023-02-06T02:08:14.089Z,47.40
2023-02-06T02:10:43.863Z,45.90
2023-02-06T02:13:13.239Z,47.92
2023-02-06T02:15:47.108Z,46.75
2023-02-06T02:18:29.946Z,46.53
2023-02-06T02:21:43.947Z,43.33
2023-02-06T02:24:34.567Z,44.22
2023-02-06T02:27:30.638Z,47.40
2023-02-06T02:30:24.761Z,46.00
2023-02-06T02:33:15.762Z,43.53
2023-02-06T02:35:45.680Z,45.42
2023-02-06T02:38:30.425Z,44.57
2023-02-06T02:41:21.395Z,43.90
2023-02-06T02:44:00.878Z,42.80
2023-02-06T02:46:37.900Z,44.70
2023-02-06T02:49:10.434Z,46.92
2023-02-06T02:51:38.753Z,46.85
2023-02-06T02:54:06.049Z,43.50
2023-02-06T02:56:36.314Z,45.90
2023-02-06T02:59:25.360Z,42.95
2023-02-06T03:01:59.102Z,46.10
2023-02-06T03:04:32.302Z,49.33
2023-02-06T03:07:08.260Z,46.67
2023-02-06T03:09:45.899Z,46.15
2023-02-06T03:12:28.143Z,45.28
2023-02-06T03:15:04.970Z,43.92
2023-02-06T03:17:38.254Z,44.55
2023-02-06T03:20:10.033Z,43.90
2023-02-06T03:22:37.800Z,41.85
2023-02-06T03:25:10.411Z,41.45
2023-02-06T03:27:40.037Z,40.95
2023-02-06T03:30:08.977Z,42.00
2023-02-06T03:32:41.791Z,41.80
2023-02-06T03:35:14.449Z,41.63
2023-02-06T03:37:43.964Z,41.17
2023-02-06T03:40:11.633Z,37.10
2023-02-06T03:42:41.048Z,38.90
2023-02-06T03:45:14.030Z,40.03
2023-02-06T03:47:42.527Z,37.20
2023-02-06T03:50:10.940Z,38.42
2023-02-06T03:52:41.623Z,38.58
2023-02-06T03:55:15.195Z,39.78
2023-02-06T03:57:44.775Z,40.20
2023-02-06T04:00:12.302Z,39.92
2023-02-06T04:02:41.414Z,39.05
2023-02-06T04:05:08.683Z,39.00
2023-02-06T04:07:36.707Z,38.28
2023-02-06T04:10:04.274Z,38.45
2023-02-06T04:12:31.513Z,36.55
2023-02-06T04:14:58.523Z,37.30
2023-02-06T04:17:43.135Z,37.00
2023-02-06T04:20:12.692Z,36.45
2023-02-06T04:22:40.781Z,39.20
2023-02-06T04:25:07.965Z,37.13
2023-02-06T04:27:34.881Z,36.40
2023-02-06T04:30:02.207Z,36.95
2023-02-06T04:32:31.429Z,36.83
2023-02-06T04:34:58.303Z,37.30
2023-02-06T04:37:25.230Z,39.35
2023-02-06T04:39:52.183Z,39.30
2023-02-06T04:42:19.266Z,39.78
2023-02-06T04:44:46.157Z,38.78
2023-02-06T04:47:13.180Z,41.55
2023-02-06T04:49:40.034Z,46.22
2023-02-06T04:52:06.913Z,44.60
2023-02-06T04:54:33.873Z,44.03
2023-02-06T04:57:00.845Z,43.05
2023-02-06T04:59:27.813Z,40.88
2023-02-06T05:01:54.770Z,41.22
2023-02-06T05:04:21.720Z,41.33
2023-02-06T05:06:48.749Z,40.78
2023-02-06T05:09:15.630Z,41.58
2023-02-06T05:11:42.536Z,39.78
2023-02-06T05:14:11.541Z,41.75
2023-02-06T05:16:41.033Z,42.28
2023-02-06T05:19:10.172Z,41.53
2023-02-06T05:21:37.159Z,42.72
2023-02-06T05:24:04.335Z,43.13
2023-02-06T05:26:31.211Z,41.38
2023-02-06T05:28:58.306Z,39.60
2023-02-06T05:31:25.284Z,39.72
2023-02-06T05:33:52.838Z,40.67
2023-02-06T05:36:20.263Z,39.65
2023-02-06T05:38:50.342Z,41.78
2023-02-06T05:41:17.544Z,43.40
2023-02-06T05:43:44.540Z,41.85
2023-02-06T05:46:13.051Z,43.83
2023-02-06T05:48:40.813Z,44.83
2023-02-06T05:51:07.969Z,44.55
2023-02-06T05:53:35.090Z,43.58
2023-02-06T05:56:02.035Z,41.53
2023-02-06T05:58:29.152Z,41.75
2023-02-06T06:00:56.110Z,46.90
2023-02-06T06:03:23.199Z,45.47
2023-02-06T06:05:50.583Z,47.40
2023-02-06T06:08:17.456Z,49.90
2023-02-06T06:10:44.393Z,47.08
2023-02-06T06:13:12.551Z,47.58
2023-02-06T06:15:39.570Z,49.03
2023-02-06T06:18:08.765Z,49.78
2023-02-06T06:20:36.054Z,48.10
2023-02-06T06:23:05.580Z,48.35
2023-02-06T06:25:32.612Z,50.15
2023-02-06T06:27:59.560Z,50.15
2023-02-06T06:30:26.584Z,48.10
2023-02-06T06:32:53.702Z,52.63
2023-02-06T06:35:20.688Z,52.67
2023-02-06T06:37:47.633Z,51.55
2023-02-06T06:40:14.648Z,47.72
2023-02-06T06:42:41.605Z,49.40
2023-02-06T06:45:09.237Z,50.42
2023-02-06T06:47:36.593Z,48.38
2023-02-06T06:50:03.689Z,49.58
2023-02-06T06:52:30.627Z,48.83
2023-02-06T06:54:57.548Z,50.53
2023-02-06T06:57:24.640Z,51.25
2023-02-06T06:59:51.737Z,50.88
2023-02-06T07:02:18.700Z,52.08
2023-02-06T07:04:45.756Z,52.85
2023-02-06T07:07:15.102Z,51.35
2023-02-06T07:09:44.360Z,52.90
2023-02-06T07:12:11.408Z,51.42
2023-02-06T07:14:38.925Z,54.05
2023-02-06T07:17:05.962Z,52.88
2023-02-06T07:19:35.231Z,52.30
2023-02-06T07:22:02.149Z,52.75
2023-02-06T07:24:29.165Z,56.35
2023-02-06T07:26:58.269Z,57.40
2023-02-06T07:29:25.947Z,53.10
2023-02-06T07:31:53.064Z,55.15
2023-02-06T07:34:20.140Z,53.80
2023-02-06T07:36:47.285Z,46.83
2023-02-06T07:39:14.262Z,52.55
2023-02-06T07:41:41.476Z,51.30
2023-02-06T07:44:10.208Z,48.78
2023-02-06T07:46:37.237Z,50.92
2023-02-06T07:49:04.190Z,53.38
2023-02-06T07:51:31.232Z,55.35
2023-02-06T07:53:58.141Z,51.63
2023-02-06T07:56:25.519Z,53.47
2023-02-06T07:58:54.365Z,55.55
2023-02-06T08:01:22.614Z,57.28
2023-02-06T08:03:50.877Z,55.75
2023-02-06T08:06:19.034Z,53.17
2023-02-06T08:08:46.470Z,51.63
2023-02-06T08:11:15.808Z,50.78
2023-02-06T08:13:43.226Z,51.70
2023-02-06T08:16:21.653Z,51.55
2023-02-06T08:18:49.344Z,50.42
2023-02-06T08:21:18.449Z,50.05
2023-02-06T08:23:45.630Z,51.45
2023-02-06T08:26:18.316Z,52.40
2023-02-06T08:28:47.288Z,49.47
2023-02-06T08:31:26.538Z,51.30
2023-02-06T08:33:54.597Z,49.38
2023-02-06T08:36:25.152Z,47.70
2023-02-06T08:38:53.178Z,47.80
2023-02-06T08:41:24.699Z,46.63
2023-02-06T08:43:56.839Z,50.95
2023-02-06T08:46:25.662Z,47.47
2023-02-06T08:48:57.364Z,47.92
2023-02-06T08:51:27.916Z,48.03
2023-02-06T08:53:59.367Z,45.47
2023-02-06T08:56:26.962Z,48.88
2023-02-06T08:58:54.017Z,48.33
2023-02-06T09:01:21.677Z,47.38
2023-02-06T09:03:48.866Z,47.05
2023-02-06T09:06:18.540Z,44.38
2023-02-06T09:08:45.507Z,43.72
2023-02-06T09:11:17.376Z,43.70
2023-02-06T09:13:49.223Z,45.45
2023-02-06T09:16:18.748Z,44.95
2023-02-06T09:18:46.020Z,47.78
2023-02-06T09:21:19.487Z,47.17
2023-02-06T09:23:49.324Z,43.70
2023-02-06T09:26:21.372Z,44.55
2023-02-06T09:28:48.257Z,43.63
2023-02-06T09:31:15.272Z,43.00
2023-02-06T09:33:42.415Z,41.03
2023-02-06T09:36:14.907Z,38.60
2023-02-06T09:38:44.264Z,38.53
2023-02-06T09:41:35.785Z,38.45
2023-02-06T09:44:04.302Z,36.85
2023-02-06T09:46:34.740Z,33.88
2023-02-06T09:49:06.806Z,37.17
2023-02-06T09:54:22.250Z,36.13
2023-02-06T09:56:52.112Z,39.00
2023-02-06T10:00:12.406Z,39.15
2023-02-06T10:03:01.101Z,32.72
2023-02-06T10:05:49.859Z,29.38
2023-02-06T10:08:24.582Z,29.02
2023-02-06T10:10:57.199Z,28.95
2023-02-06T10:13:49.903Z,26.67
2023-02-06T10:16:28.805Z,26.83
2023-02-06T10:19:00.749Z,20.58
2023-02-06T10:21:35.721Z,21.23
2023-02-06T10:24:29.900Z,19.52
2023-02-06T10:26:58.511Z,17.83
2023-02-06T10:29:33.011Z,15.30
2023-02-06T10:32:18.154Z,17.38
2023-02-06T10:35:06.746Z,13.90
2023-02-06T10:38:11.680Z,14.02
2023-02-06T10:40:40.821Z,16.15
2023-02-06T10:43:46.951Z,15.55
2023-02-06T10:46:28.461Z,14.70
2023-02-06T10:48:58.151Z,16.50
2023-02-06T10:51:34.073Z,16.83
2023-02-06T10:54:02.491Z,15.20
2023-02-06T10:56:38.723Z,17.67
2023-02-06T10:59:14.076Z,17.92
2023-02-06T11:01:43.144Z,13.18
2023-02-06T11:04:17.854Z,11.38
2023-02-06T11:06:47.583Z,12.63
2023-02-06T11:09:15.305Z,12.02
2023-02-06T11:11:48.548Z,9.18
2023-02-06T11:14:20.078Z,10.50
2023-02-06T11:16:47.507Z,11.10
2023-02-06T11:19:20.082Z,11.77
2023-02-06T11:22:05.860Z,11.52
2023-02-06T11:24:33.318Z,10.95
2023-02-06T11:27:16.496Z,15.88
2023-02-06T11:29:51.850Z,11.60
2023-02-06T11:32:41.197Z,12.50
2023-02-06T11:35:25.076Z,13.13
2023-02-06T11:40:39.160Z,14.57
2023-02-06T11:43:22.500Z,14.70
2023-02-06T11:45:52.772Z,15.50
2023-02-06T11:48:51.584Z,13.75
2023-02-06T11:51:20.614Z,13.27
2023-02-06T11:54:04.409Z,14.13
2023-02-06T11:56:32.002Z,13.45
2023-02-06T12:01:47.177Z,11.98
2023-02-06T12:04:24.087Z,10.98
2023-02-06T12:06:55.306Z,10.32
2023-02-06T12:09:22.260Z,11.03
2023-02-06T12:12:14.003Z,11.65
2023-02-06T12:15:33.036Z,12.48
2023-02-06T12:18:07.278Z,11.68
2023-02-06T12:20:37.089Z,9.82
2023-02-06T12:23:36.136Z,10.77
2023-02-06T12:26:08.148Z,10.80
2023-02-06T12:28:59.093Z,9.43
2023-02-06T12:31:37.278Z,12.02
2023-02-06T12:34:12.928Z,12.00
2023-02-06T12:37:21.699Z,9.73
2023-02-06T12:39:49.445Z,9.80
2023-02-06T12:42:44.026Z,9.07
2023-02-06T12:45:21.558Z,10.23
2023-02-06T12:48:12.376Z,9.73
2023-02-06T12:50:50.794Z,10.57
2023-02-06T12:53:29.210Z,10.55
2023-02-06T12:56:00.358Z,9.88
2023-02-06T12:58:57.966Z,11.35
2023-02-06T13:01:45.645Z,11.02
2023-02-06T13:04:33.334Z,8.77
2023-02-06T13:07:15.004Z,8.25
2023-02-06T13:10:01.052Z,10.23
2023-02-06T13:12:30.100Z,9.82
2023-02-06T13:14:59.819Z,10.43
2023-02-06T13:17:35.732Z,10.98
2023-02-06T13:20:07.511Z,10.85
2023-02-06T13:22:37.326Z,10.70
2023-02-06T13:25:26.225Z,12.23
2023-02-06T13:27:54.915Z,13.25
2023-02-06T13:30:33.401Z,12.40
2023-02-06T13:33:16.886Z,11.27
2023-02-06T13:36:06.067Z,10.35
2023-02-06T13:38:36.180Z,10.10
2023-02-06T13:41:15.612Z,9.52
2023-02-06T13:44:07.498Z,9.15
2023-02-06T13:46:40.182Z,9.65
2023-02-06T13:49:16.601Z,9.50
2023-02-06T13:52:07.451Z,8.98
2023-02-06T13:54:47.881Z,7.95
2023-02-06T13:57:33.134Z,8.68
2023-02-06T14:00:16.550Z,8.02
2023-02-06T14:02:48.630Z,9.15
2023-02-06T14:05:48.066Z,8.50
2023-02-06T14:08:37.716Z,8.30
2023-02-06T14:11:33.371Z,8.15
2023-02-06T14:14:54.757Z,7.60
2023-02-06T14:17:33.142Z,7.85
2023-02-06T14:20:25.674Z,8.90
2023-02-06T14:25:40.860Z,7.57
2023-02-06T14:28:32.748Z,5.68
2023-02-06T14:31:12.899Z,8.20
2023-02-06T14:34:07.060Z,7.70
2023-02-06T14:36:58.665Z,7.82
2023-02-06T14:39:49.295Z,6.85
2023-02-06T14:42:16.250Z,9.15
2023-02-06T14:44:45.221Z,9.75
2023-02-06T14:47:19.472Z,11.20
2023-02-06T14:49:47.409Z,12.93
2023-02-06T14:52:23.862Z,13.05
2023-02-06T14:54:51.263Z,15.75
2023-02-06T14:57:30.556Z,15.82
2023-02-06T14:59:59.042Z,15.25
2023-02-06T15:02:32.617Z,16.33
2023-02-06T15:05:00.558Z,16.63
2023-02-06T15:07:30.577Z,16.67
2023-02-06T15:10:08.001Z,17.83
2023-02-06T15:12:35.381Z,17.05
2023-02-06T15:15:17.845Z,16.88
2023-02-06T15:20:25.969Z,17.58
2023-02-06T15:23:08.133Z,18.08
2023-02-06T15:25:51.439Z,16.63
2023-02-06T15:28:24.024Z,17.10
2023-02-06T15:30:55.631Z,16.95
2023-02-06T15:33:25.989Z,17.17
2023-02-06T15:35:55.290Z,17.92
2023-02-06T15:38:24.011Z,15.52
2023-02-06T15:40:58.335Z,16.30
2023-02-06T15:43:26.934Z,16.58
2023-02-06T15:45:56.835Z,18.00
2023-02-06T15:48:32.920Z,18.33
2023-02-06T15:51:07.173Z,17.95
2023-02-06T15:53:42.799Z,18.65
2023-02-06T15:56:29.121Z,19.42
2023-02-06T15:59:02.059Z,18.38
2023-02-06T16:01:37.186Z,19.42
2023-02-06T16:04:08.689Z,20.30
2023-02-06T16:06:36.306Z,20.53
2023-02-06T16:09:06.504Z,21.35
2023-02-06T16:11:49.368Z,21.05
2023-02-06T16:14:24.577Z,21.83
2023-02-06T16:17:00.330Z,23.10
2023-02-06T16:19:49.026Z,24.48
2023-02-06T16:22:26.549Z,23.55
2023-02-06T16:24:56.475Z,27.63
2023-02-06T16:27:27.574Z,26.25
2023-02-06T16:29:56.404Z,29.08
2023-02-06T16:32:32.633Z,29.58
2023-02-06T16:35:01.350Z,30.38
2023-02-06T16:37:29.991Z,31.45
2023-02-06T16:39:56.990Z,31.50
2023-02-06T16:42:32.962Z,31.45
2023-02-06T16:45:07.430Z,34.15
2023-02-06T16:47:34.398Z,32.95
2023-02-06T16:50:02.991Z,32.17
2023-02-06T16:52:35.081Z,31.80
2023-02-06T16:55:02.394Z,30.25
2023-02-06T16:57:38.257Z,32.70
2023-02-06T17:00:25.798Z,31.02
2023-02-06T17:02:53.873Z,31.67
2023-02-06T17:05:23.058Z,30.35
2023-02-06T17:07:50.862Z,30.27
2023-02-06T17:10:20.909Z,32.20
2023-02-06T17:12:48.510Z,31.35
2023-02-06T17:15:17.092Z,32.63
2023-02-06T17:17:44.389Z,32.30
2023-02-06T17:20:33.240Z,32.25
2023-02-06T17:23:00.252Z,32.35
2023-02-06T17:25:27.385Z,31.35
2023-02-06T17:27:54.935Z,33.60
2023-02-06T17:30:23.702Z,31.90
2023-02-06T17:32:50.800Z,32.60
2023-02-06T17:35:20.821Z,34.35
2023-02-06T17:37:49.328Z,32.38
2023-02-06T17:40:20.003Z,33.67
2023-02-06T17:42:50.235Z,32.25
2023-02-06T17:45:17.271Z,33.13
2023-02-06T17:47:44.646Z,32.95
2023-02-06T17:50:15.131Z,32.92
2023-02-06T17:52:42.135Z,31.63
2023-02-06T17:55:09.695Z,34.08
2023-02-06T17:57:37.418Z,33.25
2023-02-06T18:00:10.653Z,35.05
2023-02-06T18:02:40.261Z,33.55
2023-02-06T18:05:07.565Z,36.28
2023-02-06T18:07:34.771Z,37.97
2023-02-06T18:10:01.931Z,35.38
2023-02-06T18:12:29.312Z,35.63
2023-02-06T18:14:56.400Z,36.38
2023-02-06T18:17:23.420Z,36.28
2023-02-06T18:19:50.764Z,42.13
2023-02-06T18:22:20.382Z,49.13
2023-02-06T18:24:48.168Z,46.90
2023-02-06T18:27:15.982Z,49.42
2023-02-06T18:29:50.102Z,53.05
2023-02-06T18:32:18.433Z,51.70
2023-02-06T18:34:45.478Z,51.00
2023-02-06T18:37:12.534Z,52.80
2023-02-06T18:39:39.681Z,56.05
2023-02-06T18:42:25.644Z,58.90
2023-02-06T18:44:55.067Z,57.30
2023-02-06T18:47:22.259Z,60.38
2023-02-06T18:49:49.320Z,55.95
2023-02-06T18:52:16.621Z,57.60
2023-02-06T18:54:43.824Z,58.10
2023-02-06T18:57:10.828Z,64.28
2023-02-06T18:59:37.840Z,65.30
2023-02-06T19:02:04.862Z,62.42
2023-02-06T19:04:31.962Z,63.45
2023-02-06T19:06:58.910Z,70.18
2023-02-06T19:09:25.899Z,68.03
2023-02-06T19:11:52.922Z,72.32
2023-02-06T19:14:22.637Z,69.90
2023-02-06T19:16:52.874Z,72.32
2023-02-06T19:19:19.898Z,75.72
2023-02-06T19:21:47.204Z,75.57
2023-02-06T19:24:16.224Z,78.65
2023-02-06T19:26:43.160Z,79.13
2023-02-06T19:29:14.805Z,74.85
2023-02-06T19:31:42.858Z,74.22
2023-02-06T19:34:10.353Z,74.25
2023-02-06T19:36:38.125Z,73.55
2023-02-06T19:39:07.405Z,71.05
2023-02-06T19:41:35.174Z,71.18
2023-02-06T19:44:06.458Z,69.78
2023-02-06T19:46:34.294Z,66.57
2023-02-06T19:49:01.677Z,73.15
2023-02-06T19:51:35.188Z,70.40
2023-02-06T19:54:02.276Z,69.20
2023-02-06T19:56:34.687Z,60.70
2023-02-06T19:59:06.660Z,65.30
2023-02-06T20:01:36.315Z,65.03
2023-02-06T20:04:03.776Z,62.83
2023-02-06T20:06:34.981Z,63.22
2023-02-06T20:09:03.474Z,68.25
2023-02-06T20:11:31.640Z,71.03
2023-02-06T20:13:59.030Z,66.28
2023-02-06T20:16:29.096Z,69.85
2023-02-06T20:18:56.509Z,71.28
2023-02-06T20:21:27.976Z,71.85
2023-02-06T20:24:00.488Z,66.50
2023-02-06T20:26:33.233Z,65.65
2023-02-06T20:29:00.628Z,64.50
2023-02-06T20:31:28.183Z,67.40
2023-02-06T20:33:55.493Z,66.32
2023-02-06T20:36:24.118Z,62.25
2023-02-06T20:38:55.921Z,65.25
2023-02-06T20:41:26.246Z,64.78
2023-02-06T20:43:53.319Z,62.88
2023-02-06T20:46:31.674Z,63.25
2023-02-06T20:49:00.654Z,64.65
2023-02-06T20:51:28.591Z,65.25
2023-02-06T20:53:55.991Z,65.55
2023-02-06T20:56:27.087Z,68.65
2023-02-06T20:58:56.421Z,73.23
2023-02-06T21:01:26.254Z,67.20
2023-02-06T21:03:56.195Z,69.90
2023-02-06T21:06:23.302Z,70.07
2023-02-06T21:08:51.682Z,75.47
2023-02-06T21:11:21.396Z,75.03
2023-02-06T21:13:48.455Z,74.00
2023-02-06T21:16:15.549Z,78.72
2023-02-06T21:18:42.796Z,87.30
2023-02-06T21:21:13.542Z,97.75
2023-02-06T21:23:42.134Z,95.90
2023-02-06T21:26:12.877Z,88.80
2023-02-06T21:28:40.820Z,87.18
2023-02-06T21:31:12.177Z,89.20
2023-02-06T21:33:39.155Z,92.18
2023-02-06T21:36:07.795Z,91.28
2023-02-06T21:38:40.921Z,93.40
2023-02-06T21:41:16.730Z,87.15
2023-02-06T21:43:44.328Z,88.28
2023-02-06T21:46:11.958Z,85.82
2023-02-06T21:48:40.233Z,86.50
2023-02-06T21:51:09.658Z,87.30
2023-02-06T21:53:36.783Z,89.75
2023-02-06T21:56:08.640Z,87.18
2023-02-06T21:58:36.493Z,80.93
2023-02-06T22:01:08.769Z,75.53
2023-02-06T22:03:36.076Z,69.97
2023-02-06T22:06:09.332Z,71.50
2023-02-06T22:08:37.381Z,65.80
2023-02-06T22:11:16.813Z,73.10
2023-02-06T22:13:48.096Z,72.07
2023-02-06T22:16:17.446Z,52.43
2023-02-06T22:18:44.489Z,70.00
2023-02-06T22:21:19.676Z,73.30
2023-02-06T22:23:48.062Z,71.75
2023-02-06T22:26:16.848Z,73.85
2023-02-06T22:28:44.400Z,76.72
2023-02-06T22:31:18.950Z,69.47
2023-02-06T22:33:46.533Z,71.50
2023-02-06T22:36:16.252Z,67.82
2023-02-06T22:38:44.317Z,70.50
2023-02-06T22:41:15.564Z,71.25
2023-02-06T22:43:43.372Z,68.90
2023-02-06T22:46:22.185Z,67.70
2023-02-06T22:48:49.870Z,67.95
2023-02-06T22:51:17.492Z,68.13
2023-02-06T22:53:44.625Z,68.65
2023-02-06T22:56:24.576Z,68.68
2023-02-06T22:58:52.069Z,68.13
2023-02-06T23:01:23.341Z,67.97
2023-02-06T23:03:54.333Z,53.33
2023-02-06T23:06:21.646Z,69.47
2023-02-06T23:08:48.733Z,69.18
2023-02-06T23:11:19.570Z,68.20
2023-02-06T23:13:52.244Z,71.25
2023-02-06T23:16:19.235Z,70.85
2023-02-06T23:18:48.517Z,70.07
2023-02-06T23:21:19.025Z,69.45
2023-02-06T23:23:45.982Z,68.78
2023-02-06T23:26:14.692Z,69.47
2023-02-06T23:28:42.851Z,74.18
2023-02-06T23:31:12.695Z,68.57
2023-02-06T23:33:40.210Z,71.75
2023-02-06T23:36:16.539Z,74.38
2023-02-06T23:38:47.899Z,69.07
2023-02-06T23:41:17.625Z,72.18
2023-02-06T23:43:44.946Z,72.57
2023-02-06T23:46:12.786Z,68.85
2023-02-06T23:48:40.301Z,69.13
2023-02-06T23:51:09.103Z,68.28
2023-02-06T23:53:36.158Z,68.30
2023-02-06T23:56:09.856Z,65.95
2023-02-06T23:58:37.080Z,69.25
